Time;durP1;ratioP1;P1;durP2;ratioP2;P2;SDS_P1;SDS_P2;PMS_P1;PMS_P2;Temp;Humidity;BMP_temperature;BMP_pressure;BME280_temperature;BME280_humidity;BME280_pressure;Samples;Min_cycle;Max_cycle;Signal;HPM_P1;HPM_P2
2022/08/28 00:00:23;;;;;;;6.97;2.33;;;;;;;20.59;100.00;98863.19;5089492;28;20030;-95
2022/08/28 00:02:49;;;;;;;8.30;2.58;;;;;;;20.26;100.00;98855.91;5089516;28;20036;-95
2022/08/28 00:05:17;;;;;;;8.13;2.50;;;;;;;20.15;100.00;98851.09;5086880;28;20107;-95
2022/08/28 00:07:43;;;;;;;8.32;2.75;;;;;;;20.11;100.00;98846.88;5074056;28;20043;-94
2022/08/28 00:10:11;;;;;;;8.95;2.60;;;;;;;20.04;100.00;98848.97;5066797;28;20055;-94
2022/08/28 00:12:38;;;;;;;7.63;2.70;;;;;;;19.94;100.00;98845.91;5083090;28;20052;-94
2022/08/28 00:15:08;;;;;;;7.65;2.55;;;;;;;19.92;100.00;98842.44;5085585;28;20031;-95
2022/08/28 00:17:37;;;;;;;7.82;2.63;;;;;;;20.07;100.00;98837.38;5088930;28;20115;-93
2022/08/28 00:20:05;;;;;;;8.02;2.53;;;;;;;20.30;100.00;98841.59;5067241;28;20055;-95
2022/08/28 00:22:31;;;;;;;9.32;2.60;;;;;;;20.72;100.00;98843.09;5084838;28;20028;-94
2022/08/28 00:24:56;;;;;;;8.50;2.55;;;;;;;21.13;100.00;98847.28;5062787;28;20105;-94
2022/08/28 00:30:07;;;;;;;7.60;2.45;;;;;;;20.79;100.00;98852.50;5084998;28;20073;-94
2022/08/28 00:32:34;;;;;;;9.77;2.72;;;;;;;20.64;100.00;98851.41;5070978;28;20061;-95
2022/08/28 00:35:01;;;;;;;9.13;2.58;;;;;;;20.43;100.00;98845.38;5073950;28;20035;-96
2022/08/28 00:37:27;;;;;;;10.43;2.45;;;;;;;20.31;100.00;98840.66;5092924;28;20537;-95
2022/08/28 00:39:55;;;;;;;8.93;2.55;;;;;;;20.08;100.00;98832.03;5070132;28;20114;-94
2022/08/28 00:42:20;;;;;;;7.82;2.30;;;;;;;20.53;100.00;98839.59;5086011;28;20055;-93
2022/08/28 00:44:47;;;;;;;7.20;2.42;;;;;;;20.90;100.00;98845.78;5092974;28;20017;-95
2022/08/28 00:47:15;;;;;;;8.95;2.75;;;;;;;21.20;100.00;98847.84;5072863;28;20049;-94
2022/08/28 00:49:51;;;;;;;8.73;2.50;;;;;;;20.48;100.00;98847.78;5068369;28;20074;-94
2022/08/28 00:52:19;;;;;;;6.78;2.13;;;;;;;20.82;100.00;98834.72;5073469;28;20028;-95
2022/08/28 00:54:52;;;;;;;8.88;2.15;;;;;;;20.97;100.00;98847.19;5084531;28;20032;-95
2022/08/28 00:57:23;;;;;;;10.52;2.40;;;;;;;21.33;100.00;98856.00;5061839;28;20092;-95
2022/08/28 00:59:48;;;;;;;7.68;1.90;;;;;;;21.37;100.00;98849.63;5084325;28;20028;-95
2022/08/28 01:02:14;;;;;;;6.65;1.88;;;;;;;21.11;100.00;98855.31;5064890;28;20024;-94
2022/08/28 01:04:41;;;;;;;6.80;1.60;;;;;;;21.08;100.00;98846.66;5070090;28;20446;-95
2022/08/28 01:07:09;;;;;;;6.65;1.90;;;;;;;20.74;100.00;98841.25;5071662;28;20032;-95
2022/08/28 01:09:38;;;;;;;6.28;1.95;;;;;;;20.36;100.00;98843.97;5088678;28;20046;-94
2022/08/28 01:12:14;;;;;;;9.40;2.13;;;;;;;20.63;100.00;98844.41;5070721;28;20032;-93
2022/08/28 01:14:44;;;;;;;6.07;1.77;;;;;;;20.85;100.00;98848.69;5086751;28;20107;-94
2022/08/28 01:17:13;;;;;;;7.20;1.85;;;;;;;20.75;100.00;98847.41;5072052;28;20032;-95
2022/08/28 01:19:43;;;;;;;6.82;1.50;;;;;;;20.62;100.00;98845.31;5070994;28;20031;-95
2022/08/28 01:22:44;;;;;;;7.18;1.88;;;;;;;20.48;100.00;98849.59;5071587;28;20044;-95
2022/08/28 01:25:20;;;;;;;9.02;1.80;;;;;;;21.02;100.00;98853.13;5066213;28;20059;-95
2022/08/28 01:27:45;;;;;;;5.38;1.38;;;;;;;21.41;100.00;98862.63;5070330;28;20039;-95
2022/08/28 01:30:15;;;;;;;8.23;1.70;;;;;;;21.21;100.00;98860.13;5070192;28;20559;-95
2022/08/28 01:32:45;;;;;;;8.70;1.80;;;;;;;21.30;100.00;98863.19;5082141;28;20044;-94
2022/08/28 01:35:16;;;;;;;7.03;1.77;;;;;;;21.04;100.00;98864.50;5064508;28;20177;-95
2022/08/28 01:37:42;;;;;;;5.70;1.67;;;;;;;21.19;100.00;98859.38;5070618;28;20486;-95
2022/08/28 01:40:10;;;;;;;5.80;1.60;;;;;;;21.35;100.00;98864.75;5065443;28;20036;-95
2022/08/28 01:42:43;;;;;;;7.05;2.05;;;;;;;21.15;100.00;98869.28;5064220;28;20039;-94
2022/08/28 01:45:13;;;;;;;6.93;1.55;;;;;;;21.28;100.00;98869.50;5070550;28;20493;-95
2022/08/28 01:47:41;;;;;;;5.78;1.40;;;;;;;21.44;100.00;98864.28;5063085;28;20036;-94
2022/08/28 01:50:09;;;;;;;7.20;1.45;;;;;;;21.15;100.00;98861.31;5065579;28;20031;-94
2022/08/28 01:52:38;;;;;;;6.40;1.73;;;;;;;21.01;100.00;98858.50;5058489;28;20104;-93
2022/08/28 01:55:06;;;;;;;6.80;1.60;;;;;;;20.67;100.00;98850.41;5079560;28;20429;-93
2022/08/28 01:57:32;;;;;;;8.13;1.73;;;;;;;20.83;100.00;98841.72;5062759;28;20126;-95
2022/08/28 01:59:58;;;;;;;7.15;1.67;;;;;;;20.79;100.00;98844.53;5055888;28;20032;-95
2022/08/28 02:02:24;;;;;;;6.07;1.55;;;;;;;21.01;100.00;98858.50;5060025;28;20073;-96
2022/08/28 02:04:51;;;;;;;6.75;1.42;;;;;;;21.24;100.00;98855.56;5066350;28;20032;-96
2022/08/28 02:07:17;;;;;;;6.03;2.00;;;;;;;20.88;100.00;98853.81;5060799;28;20110;-94
2022/08/28 02:09:45;;;;;;;7.60;1.83;;;;;;;21.03;100.00;98861.94;5067285;28;20095;-95
2022/08/28 02:12:10;;;;;;;6.60;1.33;;;;;;;20.97;100.00;98858.66;5070588;28;20513;-95
2022/08/28 02:14:37;;;;;;;5.63;1.50;;;;;;;20.68;100.00;98860.13;5087485;28;20063;-96
2022/08/28 02:17:03;;;;;;;5.68;1.52;;;;;;;20.56;100.00;98855.38;5071325;28;20038;-96
2022/08/28 02:19:29;;;;;;;5.50;1.58;;;;;;;20.28;100.00;98854.91;5071050;28;20036;-95
2022/08/28 02:21:54;;;;;;;5.70;1.30;;;;;;;20.74;100.00;98857.16;5084779;28;20032;-95
2022/08/28 02:24:20;;;;;;;7.25;1.50;;;;;;;20.41;100.00;98854.31;5068824;28;20028;-95
2022/08/28 02:26:45;;;;;;;4.95;1.25;;;;;;;20.58;100.00;98854.34;5070124;28;20032;-93
2022/08/28 02:29:11;;;;;;;5.50;1.50;;;;;;;20.78;100.00;98856.06;5068271;28;20036;-95
2022/08/28 02:31:37;;;;;;;5.20;1.30;;;;;;;20.66;100.00;98853.13;5083983;28;20066;-95
2022/08/28 02:34:04;;;;;;;5.22;1.60;;;;;;;20.52;100.00;98853.81;5064297;28;20032;-94
2022/08/28 02:36:30;;;;;;;5.28;1.40;;;;;;;20.49;100.00;98840.69;5071404;28;20032;-95
2022/08/28 02:42:00;;;;;;;5.72;1.50;;;;;;;20.74;100.00;98857.16;5057913;28;20033;-95
2022/08/28 02:44:25;;;;;;;5.93;1.27;;;;;;;20.94;100.00;98850.00;5064540;28;20035;-95
2022/08/28 02:46:51;;;;;;;7.07;1.40;;;;;;;21.47;100.00;98858.78;5081661;28;20028;-93
2022/08/28 02:49:17;;;;;;;5.63;1.25;;;;;;;21.37;100.00;98865.53;5058630;28;20043;-94
2022/08/28 02:51:44;;;;;;;5.47;1.40;;;;;;;21.24;100.00;98858.19;5086118;28;20565;-94
2022/08/28 02:54:09;;;;;;;4.15;1.23;;;;;;;21.22;100.00;98856.56;5068713;28;20256;-95
2022/08/28 02:56:35;;;;;;;4.80;1.17;;;;;;;20.87;100.00;98857.41;5070482;28;20028;-95
2022/08/28 02:59:00;;;;;;;7.10;1.50;;;;;;;21.15;100.00;98866.63;5089966;28;20393;-96
2022/08/28 03:01:26;;;;;;;7.13;1.40;;;;;;;21.11;100.00;98865.94;5088252;28;20024;-94
2022/08/28 03:03:52;;;;;;;4.90;1.10;;;;;;;20.78;100.00;98868.47;5066293;28;20101;-93
2022/08/28 03:06:17;;;;;;;6.00;1.35;;;;;;;21.09;100.00;98859.00;5043381;28;20044;-93
2022/08/28 03:08:43;;;;;;;5.60;1.23;;;;;;;20.90;100.00;98859.03;5041130;28;20029;-93
2022/08/28 03:11:09;;;;;;;5.97;1.17;;;;;;;20.96;100.00;98864.06;5042848;28;20029;-92
2022/08/28 03:13:34;;;;;;;5.85;1.25;;;;;;;20.90;100.00;98859.03;5040762;28;20433;-93
2022/08/28 03:16:00;;;;;;;6.80;1.50;;;;;;;21.01;100.00;98858.50;5041966;28;20483;-93
2022/08/28 03:18:31;;;;;;;5.25;1.10;;;;;;;21.28;100.00;98859.75;5043479;28;20056;-91
2022/08/28 03:20:58;;;;;;;5.57;1.40;;;;;;;20.76;100.00;98860.56;5044868;28;20041;-93
2022/08/28 03:23:26;;;;;;;4.93;1.20;;;;;;;21.34;100.00;98868.34;5043282;28;20025;-94
2022/08/28 03:25:58;;;;;;;5.25;1.33;;;;;;;20.78;100.00;98858.72;5045311;28;20039;-92
2022/08/28 03:28:25;;;;;;;4.82;1.05;;;;;;;20.69;100.00;98864.47;5045019;28;20118;-92
2022/08/28 03:30:51;;;;;;;4.63;1.20;;;;;;;20.80;100.00;98861.28;5044504;28;20029;-92
2022/08/28 03:33:17;;;;;;;5.63;1.20;;;;;;;20.74;100.00;98857.16;5042870;28;20031;-92
2022/08/28 03:35:42;;;;;;;6.03;1.20;;;;;;;20.13;100.00;98847.69;5040423;28;20057;-92
2022/08/28 03:38:09;;;;;;;6.43;1.45;;;;;;;20.35;100.00;98850.19;5039456;28;20037;-92
2022/08/28 03:40:41;;;;;;;3.90;1.10;;;;;;;20.06;100.00;98848.91;5035500;28;20029;-91
2022/08/28 03:43:09;;;;;;;4.18;1.15;;;;;;;20.15;100.00;98843.16;5049003;28;20037;-92
2022/08/28 03:45:34;;;;;;;6.68;1.50;;;;;;;19.95;100.00;98844.94;5047383;28;20025;-93
2022/08/28 03:48:00;;;;;;;6.10;1.30;;;;;;;20.29;100.00;98840.75;5042588;28;20043;-93
2022/08/28 03:50:26;;;;;;;6.25;1.30;;;;;;;20.35;100.00;98844.88;5044380;28;20060;-92
2022/08/28 03:52:51;;;;;;;5.28;1.40;;;;;;;20.57;100.00;98850.00;5041421;28;20121;-93
2022/08/28 03:55:18;;;;;;;5.68;1.38;;;;;;;20.52;100.00;98846.72;5045491;28;20029;-93
2022/08/28 03:57:44;;;;;;;4.53;1.20;;;;;;;19.86;100.00;98848.03;5047703;28;20089;-94
2022/08/28 04:00:12;;;;;;;5.60;1.10;;;;;;;20.09;100.00;98838.16;5042182;28;20124;-93
2022/08/28 04:02:42;;;;;;;5.05;1.40;;;;;;;19.75;100.00;98837.91;5045909;28;20029;-93
2022/08/28 04:05:08;;;;;;;6.70;1.30;;;;;;;20.05;100.00;98837.44;5043702;28;20041;-93
2022/08/28 04:07:35;;;;;;;7.40;1.48;;;;;;;19.75;100.00;98837.06;5043831;28;20053;-94
2022/08/28 04:10:00;;;;;;;6.53;1.63;;;;;;;19.77;100.00;98836.03;5045861;28;20048;-93
2022/08/28 04:12:26;;;;;;;7.18;1.60;;;;;;;19.92;100.00;98834.50;5047656;28;20028;-94
2022/08/28 04:14:52;;;;;;;4.78;1.33;;;;;;;19.66;100.00;98832.16;5051538;28;20040;-91
2022/08/28 04:17:17;;;;;;;7.65;1.40;;;;;;;19.99;100.00;98829.78;5049657;28;20716;-93
2022/08/28 04:19:43;;;;;;;4.22;1.30;;;;;;;20.25;100.00;98835.63;5051065;28;20112;-91
2022/08/28 04:22:09;;;;;;;6.47;1.50;;;;;;;19.85;100.00;98833.09;5042089;28;20681;-93
2022/08/28 04:24:35;;;;;;;6.15;1.55;;;;;;;19.74;100.00;98838.81;5041521;28;20551;-94
2022/08/28 04:27:00;;;;;;;5.40;1.45;;;;;;;20.11;100.00;98839.81;5044518;28;20083;-94
2022/08/28 04:29:26;;;;;;;4.82;1.30;;;;;;;19.99;100.00;98835.09;5046189;28;20052;-93
2022/08/28 04:31:52;;;;;;;7.15;1.70;;;;;;;19.95;100.00;98834.34;5046941;28;20036;-93
2022/08/28 04:34:18;;;;;;;7.00;1.63;;;;;;;20.04;100.00;98838.38;5042505;28;20030;-93
2022/08/28 04:36:44;;;;;;;7.68;1.73;;;;;;;19.57;100.00;98836.09;5042105;28;20160;-93
2022/08/28 04:39:10;;;;;;;7.18;1.50;;;;;;;19.40;100.00;98842.09;5046220;28;20036;-93
2022/08/28 04:41:37;;;;;;;5.20;1.50;;;;;;;18.98;100.00;98835.97;5040918;28;20044;-92
2022/08/28 04:44:04;;;;;;;7.28;1.80;;;;;;;19.28;100.00;98838.22;5045990;28;20041;-94
2022/08/28 04:46:29;;;;;;;6.35;1.85;;;;;;;19.46;100.00;98836.56;5047871;28;20120;-92
2022/08/28 04:48:55;;;;;;;6.78;1.60;;;;;;;19.93;100.00;98841.53;5049007;28;20573;-94
2022/08/28 04:51:21;;;;;;;7.28;1.48;;;;;;;20.43;100.00;98849.78;5045813;28;20035;-92
2022/08/28 04:53:47;;;;;;;10.07;1.80;;;;;;;19.50;100.00;98853.13;5044736;28;20039;-93
2022/08/28 04:56:14;;;;;;;6.97;1.77;;;;;;;19.71;100.00;98856.63;5044969;28;20033;-92
2022/08/28 04:58:41;;;;;;;6.97;1.55;;;;;;;19.38;100.00;98851.91;5045083;28;20026;-93
2022/08/28 05:01:14;;;;;;;6.47;1.55;;;;;;;20.31;100.00;98853.91;5041845;28;20171;-93
2022/08/28 05:03:39;;;;;;;7.85;1.40;;;;;;;20.03;100.00;98865.78;5045698;28;20579;-92
2022/08/28 05:06:06;;;;;;;6.85;1.70;;;;;;;20.06;100.00;98864.78;5044078;28;20087;-92
2022/08/28 05:08:31;;;;;;;8.00;1.60;;;;;;;20.49;100.00;98867.19;5042273;28;20039;-92
2022/08/28 05:11:07;;;;;;;6.30;1.40;;;;;;;20.01;100.00;98867.63;5045626;28;20013;-92
2022/08/28 05:13:33;;;;;;;5.90;1.50;;;;;;;19.91;100.00;98866.34;5041751;28;20672;-93
2022/08/28 05:16:02;;;;;;;6.45;1.60;;;;;;;20.18;100.00;98874.81;5047398;28;20033;-93
2022/08/28 05:18:27;;;;;;;7.20;1.83;;;;;;;19.87;100.00;98878.00;5042800;28;20077;-93
2022/08/28 05:20:53;;;;;;;7.47;1.83;;;;;;;19.72;100.00;98872.44;5045622;28;20037;-93
2022/08/28 05:23:18;;;;;;;6.30;1.80;;;;;;;19.75;100.00;98866.16;5045468;28;20027;-92
2022/08/28 05:25:46;;;;;;;6.20;1.63;;;;;;;20.51;100.00;98875.94;5038417;28;20036;-92
2022/08/28 05:28:15;;;;;;;7.20;1.70;;;;;;;20.71;100.00;98883.81;5038289;28;20115;-92
2022/08/28 05:30:42;;;;;;;6.07;1.55;;;;;;;19.95;100.00;98873.22;5041829;28;20082;-93
2022/08/28 05:33:09;;;;;;;7.53;1.88;;;;;;;20.42;100.00;98872.78;5041760;28;20432;-92
2022/08/28 05:35:37;;;;;;;6.40;1.50;;;;;;;20.33;100.00;98878.50;5039689;28;20037;-93
2022/08/28 05:38:03;;;;;;;7.35;1.85;;;;;;;20.69;100.00;98875.06;5042685;28;20026;-91
2022/08/28 05:40:30;;;;;;;6.47;1.70;;;;;;;19.85;100.00;98871.94;5032175;28;20025;-93
2022/08/28 05:42:55;;;;;;;7.75;1.65;;;;;;;20.09;100.00;98867.28;5044452;28;20025;-91
2022/08/28 05:45:21;;;;;;;5.80;1.67;;;;;;;19.99;100.00;98877.44;5043495;28;20134;-92
2022/08/28 05:47:47;;;;;;;7.22;1.60;;;;;;;20.10;100.00;98866.38;5041231;28;20536;-92
2022/08/28 05:50:13;;;;;;;10.68;2.00;;;;;;;20.50;100.00;98872.44;5042778;28;20075;-93
2022/08/28 05:52:41;;;;;;;7.40;1.85;;;;;;;20.66;100.00;98877.84;5037494;28;20053;-92
2022/08/28 05:55:09;;;;;;;8.63;2.28;;;;;;;20.81;100.00;98884.22;5039567;28;20056;-92
2022/08/28 05:57:34;;;;;;;7.85;1.70;;;;;;;20.82;100.00;98885.06;5047796;28;20104;-92
2022/08/28 06:00:01;;;;;;;7.00;1.65;;;;;;;20.78;100.00;98885.22;5044102;28;20060;-92
2022/08/28 06:02:27;;;;;;;7.80;2.17;;;;;;;20.70;100.00;98884.75;5042036;28;20501;-92
2022/08/28 06:04:53;;;;;;;7.75;1.95;;;;;;;20.06;100.00;98880.69;5042237;28;20037;-92
2022/08/28 06:07:19;;;;;;;9.57;2.10;;;;;;;21.24;100.00;98889.16;5084546;28;20032;-92
2022/08/28 06:09:45;;;;;;;6.78;1.92;;;;;;;20.17;100.00;98875.75;5085492;28;20027;-91
2022/08/28 06:12:31;;;;;;;8.73;2.15;;;;;;;20.12;100.00;98878.59;5086885;28;20028;-93
2022/08/28 06:14:57;;;;;;;8.57;1.95;;;;;;;20.40;100.00;98882.63;5067999;28;20033;-93
2022/08/28 06:17:25;;;;;;;7.22;2.00;;;;;;;21.23;100.00;98892.75;5065895;28;20508;-92
2022/08/28 06:19:50;;;;;;;8.75;1.95;;;;;;;20.78;100.00;98900.28;5068065;28;20020;-92
2022/08/28 06:22:17;;;;;;;6.93;2.00;;;;;;;20.95;100.00;98899.44;5066931;28;20039;-93
2022/08/28 06:24:42;;;;;;;8.93;2.30;;;;;;;21.06;100.00;98905.06;5066626;28;20054;-92
2022/08/28 06:27:08;;;;;;;10.63;1.80;;;;;;;20.22;100.00;98908.16;5068430;28;20496;-93
2022/08/28 06:29:58;;;;;;;14.80;2.13;;;;;;;20.43;100.00;98911.59;5065597;28;20180;-92
2022/08/28 06:32:24;;;;;;;6.45;1.88;;;;;;;20.62;100.00;98900.97;5056875;28;20386;-91
2022/08/28 06:34:53;;;;;;;6.30;1.90;;;;;;;21.85;100.00;98918.81;5065108;28;20028;-92
2022/08/28 06:37:18;;;;;;;9.02;2.38;;;;;;;21.08;100.00;98908.50;5066714;28;20056;-92
2022/08/28 06:39:44;;;;;;;8.38;2.20;;;;;;;20.62;100.00;98910.72;5084464;28;20116;-92
2022/08/28 06:42:09;;;;;;;9.88;2.17;;;;;;;20.77;100.00;98914.47;5060753;28;20050;-93
2022/08/28 06:44:38;;;;;;;7.40;2.13;;;;;;;21.04;100.00;98914.88;5065610;28;20115;-93
2022/08/28 06:47:03;;;;;;;6.47;1.90;;;;;;;20.89;100.00;98907.69;5067990;28;20027;-94
2022/08/28 06:49:29;;;;;;;6.80;2.20;;;;;;;20.98;100.00;98913.41;5082418;28;20035;-93
2022/08/28 06:51:55;;;;;;;10.45;2.20;;;;;;;21.69;100.00;98932.88;5064628;28;20024;-93
2022/08/28 06:54:21;;;;;;;6.55;1.90;;;;;;;21.62;100.00;98924.38;5065466;28;20024;-93
2022/08/28 06:56:47;;;;;;;9.82;1.80;;;;;;;22.19;100.00;98927.63;5083404;28;20070;-94
2022/08/28 06:59:12;;;;;;;8.45;2.22;;;;;;;21.90;100.00;98932.69;5063578;28;20135;-92
2022/08/28 07:01:38;;;;;;;7.10;1.80;;;;;;;22.16;100.00;98929.50;5066275;28;20128;-93
2022/08/28 07:04:09;;;;;;;6.65;1.77;;;;;;;21.24;100.00;98929.81;5055080;28;20024;-92
2022/08/28 07:06:44;;;;;;;5.85;1.60;;;;;;;22.12;100.00;98938.56;5056515;28;20067;-93
2022/08/28 07:09:10;;;;;;;6.60;1.90;;;;;;;21.18;100.00;98940.72;5081824;28;20020;-93
2022/08/28 07:11:37;;;;;;;10.07;1.80;;;;;;;22.02;100.00;98949.75;5057347;28;20040;-93
2022/08/28 07:14:05;;;;;;;5.93;1.70;;;;;;;22.14;100.00;98944.69;5082405;28;20047;-92
2022/08/28 07:16:36;;;;;;;9.32;1.65;;;;;;;26.53;100.00;98972.69;5086399;28;20024;-93
2022/08/28 07:19:03;;;;;;;8.25;1.60;;;;;;;28.20;100.00;98982.59;5083333;28;20032;-92
2022/08/28 07:21:29;;;;;;;6.07;1.65;;;;;;;23.98;100.00;98986.66;5087188;28;20024;-93
2022/08/28 07:23:55;;;;;;;11.05;1.80;;;;;;;22.31;100.00;98972.09;5069414;28;20031;-92
2022/08/28 07:26:23;;;;;;;9.43;1.95;;;;;;;22.88;100.00;98970.81;5061758;28;20546;-93
2022/08/28 07:28:50;;;;;;;8.38;1.88;;;;;;;22.62;100.00;98968.69;5070850;28;20055;-93
2022/08/28 07:31:19;;;;;;;6.20;1.73;;;;;;;23.37;100.00;98973.38;5068190;28;20127;-91
2022/08/28 07:33:45;;;;;;;6.00;1.80;;;;;;;22.40;100.00;98971.66;5090043;28;20081;-94
2022/08/28 07:36:18;;;;;;;7.40;1.92;;;;;;;22.53;100.00;98966.50;5086229;28;20056;-93
2022/08/28 07:38:47;;;;;;;5.82;1.75;;;;;;;23.16;100.00;98983.47;5068815;28;20031;-91
2022/08/28 07:41:22;;;;;;;7.35;2.10;;;;;;;23.61;100.00;98980.88;5091922;28;20081;-91
2022/08/28 07:46:32;;;;;;;9.63;1.75;;;;;;;23.06;100.00;98971.56;5082829;28;20051;-92
2022/08/28 07:48:58;;;;;;;9.25;1.73;;;;;;;23.40;100.00;98991.81;5089105;28;20028;-92
2022/08/28 07:51:25;;;;;;;7.18;1.67;;;;;;;23.84;100.00;98985.66;5069022;28;20012;-92
2022/08/28 07:53:52;;;;;;;7.60;1.45;;;;;;;24.15;100.00;98989.16;5086768;28;20115;-92
2022/08/28 07:56:18;;;;;;;6.63;1.60;;;;;;;24.21;100.00;98990.59;5089404;28;20039;-92
2022/08/28 07:58:44;;;;;;;7.50;1.60;;;;;;;24.43;100.00;98991.94;5086087;28;20035;-94
2022/08/28 08:01:10;;;;;;;6.95;1.45;;;;;;;24.12;100.00;98989.34;5088237;28;20093;-92
2022/08/28 08:03:36;;;;;;;5.63;1.35;;;;;;;23.84;100.00;98987.44;5074934;28;20042;-92
2022/08/28 08:06:04;;;;;;;5.72;1.45;;;;;;;23.88;100.00;98989.03;5065290;28;20044;-93
2022/08/28 08:08:32;;;;;;;5.40;1.30;;;;;;;23.85;100.00;98998.03;5092832;28;20032;-92
2022/08/28 08:11:05;;;;;;;6.78;1.48;;;;;;;23.86;100.00;98990.91;5071583;28;20043;-93
2022/08/28 08:13:32;;;;;;;8.50;1.40;;;;;;;24.31;100.00;98999.72;5079442;28;20039;-95
2022/08/28 08:16:12;;;;;;;6.13;1.25;;;;;;;23.91;100.00;98995.97;5081268;28;20020;-94
2022/08/28 08:18:40;;;;;;;5.85;1.20;;;;;;;23.71;100.00;98997.16;5077160;28;20051;-94
2022/08/28 08:21:08;;;;;;;7.50;1.60;;;;;;;23.39;100.00;99005.22;5097233;28;20043;-95
2022/08/28 08:23:35;;;;;;;7.65;1.40;;;;;;;23.07;100.00;98998.09;5079030;28;20024;-94
2022/08/28 08:26:04;;;;;;;6.85;1.20;;;;;;;23.32;100.00;99000.22;5070163;28;20103;-95
2022/08/28 08:28:32;;;;;;;6.35;1.52;;;;;;;23.49;100.00;99004.59;5063589;28;20032;-92
2022/08/28 08:31:09;;;;;;;6.10;1.10;;;;;;;24.11;100.00;99002.78;5092966;28;20040;-93
2022/08/28 08:33:37;;;;;;;5.28;1.10;;;;;;;24.03;100.00;99009.41;5109700;28;20027;-96
2022/08/28 08:36:04;;;;;;;4.05;1.23;;;;;;;23.58;100.00;99005.00;5089706;28;20028;-96
2022/08/28 08:38:31;;;;;;;8.68;1.10;;;;;;;23.61;100.00;99010.16;5076063;28;20039;-94
2022/08/28 08:41:04;;;;;;;5.78;1.15;;;;;;;23.93;100.00;99016.25;5071558;28;20024;-94
2022/08/28 08:43:41;;;;;;;5.95;1.05;;;;;;;23.98;100.00;99019.50;5095425;28;20032;-94
2022/08/28 08:46:08;;;;;;;3.47;0.90;;;;;;;23.73;100.00;99014.75;5084381;28;20086;-96
2022/08/28 08:48:35;;;;;;;8.80;1.08;;;;;;;23.55;100.00;99013.16;5064039;28;20020;-95
2022/08/28 08:51:05;;;;;;;4.05;0.65;;;;;;;23.68;100.00;99009.69;5070804;28;20028;-95
2022/08/28 08:53:46;;;;;;;4.68;1.33;;;;;;;23.71;100.00;99010.47;5065955;28;20036;-93
2022/08/28 08:56:15;;;;;;;8.18;1.10;;;;;;;22.94;100.00;99007.72;5077185;28;20027;-92
2022/08/28 08:58:47;;;;;;;7.15;1.20;;;;;;;23.27;100.00;99006.75;5078682;28;20036;-94
2022/08/28 09:01:35;;;;;;;6.00;1.30;;;;;;;23.73;100.00;99013.88;5093241;28;20031;-94
2022/08/28 09:04:13;;;;;;;9.57;1.27;;;;;;;23.64;100.00;99010.81;5075157;28;20024;-94
2022/08/28 09:07:14;;;;;;;6.45;1.15;;;;;;;23.33;100.00;99006.44;5073335;28;20505;-94
2022/08/28 09:09:59;;;;;;;5.60;1.05;;;;;;;23.43;100.00;99001.44;5008398;28;20073;-94
2022/08/28 09:12:28;;;;;;;6.47;1.15;;;;;;;23.66;100.00;99011.59;5007696;28;20488;-93
2022/08/28 09:15:10;;;;;;;5.28;1.20;;;;;;;23.79;100.00;99013.53;5023530;28;20030;-94
2022/08/28 09:17:49;;;;;;;7.72;1.30;;;;;;;23.95;100.00;99017.03;5025980;28;20096;-94
2022/08/28 09:20:24;;;;;;;8.05;1.30;;;;;;;24.20;100.00;99015.50;5028513;28;20022;-94
2022/08/28 09:22:50;;;;;;;5.93;1.00;;;;;;;23.65;100.00;99017.00;5012094;28;20037;-93
2022/08/28 09:25:43;;;;;;;3.75;1.00;;;;;;;23.39;100.00;99015.88;5004188;28;20041;-95
2022/08/28 09:28:15;;;;;;;6.13;1.65;;;;;;;24.52;100.00;99016.22;5023538;28;20058;-95
2022/08/28 09:30:42;;;;;;;5.20;1.00;;;;;;;24.46;100.00;99011.25;5026946;28;20129;-95
2022/08/28 09:33:08;;;;;;;4.97;1.10;;;;;;;24.22;100.00;99010.97;5029414;28;20042;-93
2022/08/28 09:35:40;;;;;;;6.25;1.20;;;;;;;24.79;100.00;99018.09;5027782;28;20010;-95
2022/08/28 09:38:35;;;;;;;7.90;1.23;;;;;;;24.54;100.00;99010.78;5024449;28;20042;-94
2022/08/28 09:43:55;;;;;;;6.82;1.45;;;;;;;24.91;100.00;99010.28;5018367;28;20125;-94
2022/08/28 09:46:28;;;;;;;5.53;1.20;;;;;;;25.48;100.00;99010.09;5086828;28;20036;-94
2022/08/28 09:49:11;;;;;;;7.72;1.20;;;;;;;25.62;100.00;99016.34;5071629;28;20366;-96
2022/08/28 09:51:38;;;;;;;7.60;1.50;;;;;;;25.69;100.00;99010.50;5062841;28;20350;-89
2022/08/28 09:54:45;;;;;;;5.93;1.20;;;;;;;25.47;100.00;99015.53;5066365;28;20571;-89
2022/08/28 09:57:11;;;;;;;5.40;0.90;;;;;;;25.90;100.00;99021.53;5000578;28;20064;-89
2022/08/28 10:03:36;;;;;;;3.75;0.93;;;;;;;25.53;100.00;99020.50;5013948;28;20087;-89
2022/08/28 10:06:14;;;;;;;4.68;1.10;;;;;;;25.71;100.00;99021.06;5009705;28;20160;-89
2022/08/28 10:09:09;;;;;;;4.22;0.90;;;;;;;25.61;100.00;99025.31;5006088;28;20057;-90
2022/08/28 10:11:35;;;;;;;7.68;1.38;;;;;;;25.98;100.00;99026.34;5020489;28;20083;-90
2022/08/28 10:14:22;;;;;;;4.93;1.15;;;;;;;26.39;100.00;99029.81;5002409;28;20175;-89
2022/08/28 10:17:38;;;;;;;5.75;1.33;;;;;;;25.72;100.00;99030.78;5032169;28;20097;-96
2022/08/28 10:20:30;;;;;;;4.60;1.17;;;;;;;25.68;100.00;99026.63;5033317;28;20023;-93
2022/08/28 10:23:24;;;;;;;4.32;1.08;;;;;;;26.65;100.00;99030.63;5049071;28;20141;-93
2022/08/28 10:26:18;;;;;;;7.22;1.42;;;;;;;27.37;100.00;99032.63;5007910;28;20037;-94
2022/08/28 10:29:02;;;;;;;4.65;1.27;;;;;;;28.35;100.00;99033.31;5064003;28;20161;-94
2022/08/28 10:31:54;;;;;;;4.13;1.08;;;;;;;28.81;98.17;99024.34;5081273;28;20028;-93
2022/08/28 10:34:31;;;;;;;4.28;1.00;;;;;;;28.00;100.00;99028.88;5069374;28;20040;-94
2022/08/28 10:37:36;;;;;;;6.10;1.13;;;;;;;26.80;100.00;99028.72;5080361;28;20032;-93
2022/08/28 10:40:10;;;;;;;4.43;1.00;;;;;;;27.16;100.00;99031.50;5077298;28;20029;-92
2022/08/28 10:42:44;;;;;;;5.82;1.10;;;;;;;26.58;100.00;99029.34;5076351;28;20032;-93
2022/08/28 10:45:21;;;;;;;4.95;1.00;;;;;;;27.28;100.00;99032.41;5100316;28;20027;-92
2022/08/28 10:48:27;;;;;;;8.05;1.20;;;;;;;27.76;100.00;99030.59;5097220;28;20048;-94
2022/08/28 10:50:56;;;;;;;8.00;1.13;;;;;;;27.21;100.00;99034.69;5076482;28;20126;-93
2022/08/28 10:53:41;;;;;;;4.78;0.98;;;;;;;26.87;100.00;99032.66;5091850;28;20050;-95
2022/08/28 10:56:16;;;;;;;5.30;1.40;;;;;;;27.49;100.00;99038.91;5095992;28;20028;-92
2022/08/28 10:58:42;;;;;;;7.55;1.30;;;;;;;27.59;100.00;99045.25;5093964;28;20063;-94
2022/08/28 11:01:25;;;;;;;7.10;1.20;;;;;;;27.32;100.00;99044.63;5083758;28;20024;-94
2022/08/28 11:04:02;;;;;;;5.35;1.23;;;;;;;27.37;100.00;99053.19;5099218;28;20032;-95
2022/08/28 11:06:48;;;;;;;4.53;1.23;;;;;;;28.02;100.00;99037.66;5092087;28;20044;-95
2022/08/28 11:09:26;;;;;;;3.60;1.10;;;;;;;26.56;100.00;99040.16;5096216;28;20051;-92
2022/08/28 11:11:58;;;;;;;6.38;1.40;;;;;;;26.10;100.00;99042.56;5086981;28;20051;-93
2022/08/28 11:14:39;;;;;;;6.45;1.40;;;;;;;27.18;100.00;99038.47;5073998;28;20032;-92
2022/08/28 11:17:32;;;;;;;6.93;1.40;;;;;;;28.57;100.00;99032.47;5076933;28;20032;-93
2022/08/28 11:20:25;;;;;;;;;;;;;;;27.96;100.00;99038.94;5070690;28;20028;-93
2022/08/28 11:22:57;;;;;;;5.13;1.20;;;;;;;27.77;100.00;99039.50;5095237;28;19972;-93
2022/08/28 11:25:48;;;;;;;3.67;0.98;;;;;;;27.08;100.00;99037.41;5067448;28;20040;-92
2022/08/28 11:28:22;;;;;;;5.22;1.23;;;;;;;28.10;97.23;99037.91;5072096;28;20035;-92
2022/08/28 11:30:57;;;;;;;5.32;1.05;;;;;;;27.04;100.00;99033.25;5072637;28;20036;-91
2022/08/28 11:33:38;;;;;;;6.95;1.20;;;;;;;28.02;96.35;99037.66;5080664;28;20077;-94
2022/08/28 11:36:28;;;;;;;5.28;1.02;;;;;;;28.09;95.43;99036.22;5104085;28;20024;-94
2022/08/28 11:38:54;;;;;;;6.18;1.25;;;;;;;27.25;100.00;99042.41;5070103;28;20027;-93
2022/08/28 11:41:26;;;;;;;6.15;1.10;;;;;;;28.16;100.00;99032.06;5063674;28;20023;-93
2022/08/28 11:44:11;;;;;;;5.03;1.08;;;;;;;27.44;100.00;99040.22;5066835;28;20086;-94
2022/08/28 11:46:48;;;;;;;5.20;1.05;;;;;;;28.24;95.16;99040.38;5067101;28;20039;-95
2022/08/28 11:49:31;;;;;;;6.97;1.20;;;;;;;27.96;94.27;99040.75;5086819;28;20059;-96
2022/08/28 11:52:40;;;;;;;4.10;1.00;;;;;;;28.19;93.63;99042.56;5084004;28;20028;-95
2022/08/28 11:55:12;;;;;;;5.10;1.10;;;;;;;27.87;100.00;99037.81;5105695;28;20038;-94